sensor_id;sensor_type;location;lat;lon;timestamp;pressure;altitude;pressure_sealevel;temperature;humidity
64739;BME280;51175;51.186;0.276;2024-01-10T00:00:27;102552.44;;;0.35;74.31
64739;BME280;51175;51.186;0.276;2024-01-10T00:00:57;102551.50;;;0.36;74.38
64739;BME280;51175;51.186;0.276;2024-01-10T00:01:30;102554.09;;;0.36;74.42
64739;BME280;51175;51.186;0.276;2024-01-10T00:02:04;102555.88;;;0.36;74.43
64739;BME280;51175;51.186;0.276;2024-01-10T00:02:34;102549.69;;;0.37;74.58
64739;BME280;51175;51.186;0.276;2024-01-10T00:03:04;102554.91;;;0.37;74.46
64739;BME280;51175;51.186;0.276;2024-01-10T00:03:35;102553.28;;;0.36;74.54
64739;BME280;51175;51.186;0.276;2024-01-10T00:04:05;102558.31;;;0.38;74.53
64739;BME280;51175;51.186;0.276;2024-01-10T00:04:36;102560.94;;;0.38;74.57
64739;BME280;51175;51.186;0.276;2024-01-10T00:05:06;102551.50;;;0.36;74.66
64739;BME280;51175;51.186;0.276;2024-01-10T00:05:37;102554.91;;;0.37;74.67
64739;BME280;51175;51.186;0.276;2024-01-10T00:06:07;102543.84;;;0.35;74.59
64739;BME280;51175;51.186;0.276;2024-01-10T00:06:37;102545.47;;;0.36;74.76
64739;BME280;51175;51.186;0.276;2024-01-10T00:07:08;102550.66;;;0.36;74.62
64739;BME280;51175;51.186;0.276;2024-01-10T00:07:38;102549.69;;;0.37;74.69
64739;BME280;51175;51.186;0.276;2024-01-10T00:08:17;102549.03;;;0.35;74.65
64739;BME280;51175;51.186;0.276;2024-01-10T00:08:51;102554.25;;;0.35;74.54
64739;BME280;51175;51.186;0.276;2024-01-10T00:09:36;102554.25;;;0.35;74.52
64739;BME280;51175;51.186;0.276;2024-01-10T00:10:06;102557.50;;;0.37;74.58
64739;BME280;51175;51.186;0.276;2024-01-10T00:10:37;102550.66;;;0.36;74.67
64739;BME280;51175;51.186;0.276;2024-01-10T00:11:10;102550.81;;;0.34;74.38
64739;BME280;51175;51.186;0.276;2024-01-10T00:11:40;102555.19;;;0.34;74.67
64739;BME280;51175;51.186;0.276;2024-01-10T00:12:13;102558.59;;;0.34;74.68
64739;BME280;51175;51.186;0.276;2024-01-10T00:12:43;102556.97;;;0.33;74.68
64739;BME280;51175;51.186;0.276;2024-01-10T00:13:14;102558.59;;;0.34;74.72
64739;BME280;51175;51.186;0.276;2024-01-10T00:13:45;102552.56;;;0.34;74.90
64739;BME280;51175;51.186;0.276;2024-01-10T00:14:15;102552.56;;;0.34;74.81
64739;BME280;51175;51.186;0.276;2024-01-10T00:14:46;102549.19;;;0.33;74.81
64739;BME280;51175;51.186;0.276;2024-01-10T00:15:17;102547.38;;;0.34;74.89
64739;BME280;51175;51.186;0.276;2024-01-10T00:15:48;102546.69;;;0.32;74.77
64739;BME280;51175;51.186;0.276;2024-01-10T00:16:18;102550.94;;;0.33;74.86
64739;BME280;51175;51.186;0.276;2024-01-10T00:16:49;102548.34;;;0.33;74.79
64739;BME280;51175;51.186;0.276;2024-01-10T00:17:19;102550.13;;;0.32;74.79
64739;BME280;51175;51.186;0.276;2024-01-10T00:17:50;102555.31;;;0.32;74.76
64739;BME280;51175;51.186;0.276;2024-01-10T00:18:22;102552.72;;;0.32;74.90
64739;BME280;51175;51.186;0.276;2024-01-10T00:18:52;102552.03;;;0.30;74.90
64739;BME280;51175;51.186;0.276;2024-01-10T00:19:23;102552.03;;;0.30;74.83
64739;BME280;51175;51.186;0.276;2024-01-10T00:19:53;102553.69;;;0.31;74.95
64739;BME280;51175;51.186;0.276;2024-01-10T00:20:23;102554.50;;;0.32;75.00
64739;BME280;51175;51.186;0.276;2024-01-10T00:20:54;102562.28;;;0.32;75.01
64739;BME280;51175;51.186;0.276;2024-01-10T00:21:27;102548.50;;;0.31;75.02
64739;BME280;51175;51.186;0.276;2024-01-10T00:21:59;102549.28;;;0.32;74.88
64739;BME280;51175;51.186;0.276;2024-01-10T00:22:35;102551.22;;;0.30;74.95
64739;BME280;51175;51.186;0.276;2024-01-10T00:23:06;102544.22;;;0.30;75.13
64739;BME280;51175;51.186;0.276;2024-01-10T00:23:36;102554.50;;;0.32;74.92
64739;BME280;51175;51.186;0.276;2024-01-10T00:24:07;102554.63;;;0.30;74.98
64739;BME280;51175;51.186;0.276;2024-01-10T00:24:37;102558.06;;;0.31;74.95
64739;BME280;51175;51.186;0.276;2024-01-10T00:25:08;102553.81;;;0.30;74.88
64739;BME280;51175;51.186;0.276;2024-01-10T00:25:40;102555.59;;;0.29;74.97
64739;BME280;51175;51.186;0.276;2024-01-10T00:26:11;102559.81;;;0.30;75.03
64739;BME280;51175;51.186;0.276;2024-01-10T00:26:44;102556.44;;;0.30;75.10
64739;BME280;51175;51.186;0.276;2024-01-10T00:27:15;102558.19;;;0.29;75.11
64739;BME280;51175;51.186;0.276;2024-01-10T00:27:46;102553.81;;;0.30;75.11
64739;BME280;51175;51.186;0.276;2024-01-10T00:28:16;102558.19;;;0.29;75.11
64739;BME280;51175;51.186;0.276;2024-01-10T00:28:48;102555.75;;;0.28;75.09
64739;BME280;51175;51.186;0.276;2024-01-10T00:29:18;102554.78;;;0.29;74.87
64739;BME280;51175;51.186;0.276;2024-01-10T00:29:49;102553.13;;;0.28;75.14
64739;BME280;51175;51.186;0.276;2024-01-10T00:30:21;102550.53;;;0.28;75.09
64739;BME280;51175;51.186;0.276;2024-01-10T00:30:55;102555.75;;;0.28;75.35
64739;BME280;51175;51.186;0.276;2024-01-10T00:31:33;102557.66;;;0.26;75.09
64739;BME280;51175;51.186;0.276;2024-01-10T00:32:04;102554.09;;;0.27;75.07
64739;BME280;51175;51.186;0.276;2024-01-10T00:32:36;102549.84;;;0.26;75.19
64739;BME280;51175;51.186;0.276;2024-01-10T00:33:07;102550.00;;;0.24;75.13
64739;BME280;51175;51.186;0.276;2024-01-10T00:33:37;102553.41;;;0.24;75.14
64739;BME280;51175;51.186;0.276;2024-01-10T00:34:08;102543.03;;;0.24;75.15
64739;BME280;51175;51.186;0.276;2024-01-10T00:34:38;102549.19;;;0.23;75.19
64739;BME280;51175;51.186;0.276;2024-01-10T00:35:08;102555.19;;;0.24;75.26
64739;BME280;51175;51.186;0.276;2024-01-10T00:35:40;102554.38;;;0.23;75.25
64739;BME280;51175;51.186;0.276;2024-01-10T00:36:11;102555.19;;;0.24;75.26
64739;BME280;51175;51.186;0.276;2024-01-10T00:36:41;102556.97;;;0.23;75.15
64739;BME280;51175;51.186;0.276;2024-01-10T00:37:11;102551.94;;;0.22;75.23
64739;BME280;51175;51.186;0.276;2024-01-10T00:37:42;102557.13;;;0.22;75.31
64739;BME280;51175;51.186;0.276;2024-01-10T00:38:13;102550.97;;;0.23;75.07
64739;BME280;51175;51.186;0.276;2024-01-10T00:38:43;102555.19;;;0.24;75.16
64739;BME280;51175;51.186;0.276;2024-01-10T00:39:14;102550.00;;;0.24;75.14
64739;BME280;51175;51.186;0.276;2024-01-10T00:39:45;102550.00;;;0.24;75.18
64739;BME280;51175;51.186;0.276;2024-01-10T00:40:16;102550.25;;;0.21;75.09
64739;BME280;51175;51.186;0.276;2024-01-10T00:40:48;102549.31;;;0.22;75.08
64739;BME280;51175;51.186;0.276;2024-01-10T00:41:19;102547.53;;;0.22;75.07
64739;BME280;51175;51.186;0.276;2024-01-10T00:41:49;102548.34;;;0.23;74.99
64739;BME280;51175;51.186;0.276;2024-01-10T00:42:19;102553.69;;;0.21;75.16
64739;BME280;51175;51.186;0.276;2024-01-10T00:42:50;102550.13;;;0.22;75.20
64739;BME280;51175;51.186;0.276;2024-01-10T00:43:20;102556.28;;;0.21;75.18
64739;BME280;51175;51.186;0.276;2024-01-10T00:43:53;102548.50;;;0.21;75.17
64739;BME280;51175;51.186;0.276;2024-01-10T00:44:23;102538.09;;;0.21;75.10
64739;BME280;51175;51.186;0.276;2024-01-10T00:44:54;102551.94;;;0.22;75.34
64739;BME280;51175;51.186;0.276;2024-01-10T00:45:24;102548.63;;;0.20;75.15
64739;BME280;51175;51.186;0.276;2024-01-10T00:45:55;102555.47;;;0.21;75.18
64739;BME280;51175;51.186;0.276;2024-01-10T00:46:25;102550.25;;;0.21;75.12
64739;BME280;51175;51.186;0.276;2024-01-10T00:46:56;102553.84;;;0.20;74.97
64739;BME280;51175;51.186;0.276;2024-01-10T00:47:26;102553.69;;;0.21;74.99
64739;BME280;51175;51.186;0.276;2024-01-10T00:47:57;102552.06;;;0.20;75.11
64739;BME280;51175;51.186;0.276;2024-01-10T00:48:28;102553.84;;;0.20;75.05
64739;BME280;51175;51.186;0.276;2024-01-10T00:48:58;102558.19;;;0.19;74.91
64739;BME280;51175;51.186;0.276;2024-01-10T00:49:28;102552.06;;;0.20;75.07
64739;BME280;51175;51.186;0.276;2024-01-10T00:49:59;102552.19;;;0.19;74.91
64739;BME280;51175;51.186;0.276;2024-01-10T00:50:29;102553.00;;;0.19;74.91
64739;BME280;51175;51.186;0.276;2024-01-10T00:51:00;102549.75;;;0.17;75.08
64739;BME280;51175;51.186;0.276;2024-01-10T00:51:30;102551.50;;;0.17;75.08
64739;BME280;51175;51.186;0.276;2024-01-10T00:52:00;102549.88;;;0.16;74.86
64739;BME280;51175;51.186;0.276;2024-01-10T00:52:37;102550.69;;;0.16;74.85
64739;BME280;51175;51.186;0.276;2024-01-10T00:53:07;102560.28;;;0.16;75.06
64739;BME280;51175;51.186;0.276;2024-01-10T00:53:38;102546.44;;;0.15;74.96
64739;BME280;51175;51.186;0.276;2024-01-10T00:54:12;102554.25;;;0.15;74.85
64739;BME280;51175;51.186;0.276;2024-01-10T00:54:45;102554.25;;;0.15;74.99
64739;BME280;51175;51.186;0.276;2024-01-10T00:55:16;102552.47;;;0.16;74.84
64739;BME280;51175;51.186;0.276;2024-01-10T00:55:46;102549.88;;;0.16;74.89
64739;BME280;51175;51.186;0.276;2024-01-10T00:56:17;102547.56;;;0.13;74.68
64739;BME280;51175;51.186;0.276;2024-01-10T00:56:49;102550.03;;;0.14;74.83
64739;BME280;51175;51.186;0.276;2024-01-10T00:57:20;102546.59;;;0.14;74.83
64739;BME280;51175;51.186;0.276;2024-01-10T00:57:54;102550.03;;;0.14;74.74
64739;BME280;51175;51.186;0.276;2024-01-10T00:58:24;102548.34;;;0.13;74.87
64739;BME280;51175;51.186;0.276;2024-01-10T00:58:57;102541.53;;;0.12;74.65
64739;BME280;51175;51.186;0.276;2024-01-10T00:59:28;102552.75;;;0.13;74.77
64739;BME280;51175;51.186;0.276;2024-01-10T00:59:59;102548.34;;;0.13;74.77
64739;BME280;51175;51.186;0.276;2024-01-10T01:00:29;102550.16;;;0.13;74.63
64739;BME280;51175;51.186;0.276;2024-01-10T01:00:59;102550.97;;;0.13;74.54
64739;BME280;51175;51.186;0.276;2024-01-10T01:01:30;102556.03;;;0.15;74.67
64739;BME280;51175;51.186;0.276;2024-01-10T01:02:01;102547.56;;;0.13;74.61
64739;BME280;51175;51.186;0.276;2024-01-10T01:02:39;102546.88;;;0.10;74.55
64739;BME280;51175;51.186;0.276;2024-01-10T01:03:12;102550.28;;;0.11;74.58
64739;BME280;51175;51.186;0.276;2024-01-10T01:03:42;102551.09;;;0.11;74.67
64739;BME280;51175;51.186;0.276;2024-01-10T01:04:15;102544.28;;;0.10;74.56
64739;BME280;51175;51.186;0.276;2024-01-10T01:04:45;102546.72;;;0.12;74.50
64739;BME280;51175;51.186;0.276;2024-01-10T01:05:16;102544.28;;;0.10;74.58
64739;BME280;51175;51.186;0.276;2024-01-10T01:05:48;102547.84;;;0.09;74.73
64739;BME280;51175;51.186;0.276;2024-01-10T01:06:19;102542.63;;;0.09;74.46
64739;BME280;51175;51.186;0.276;2024-01-10T01:06:50;102548.78;;;0.08;74.56
64739;BME280;51175;51.186;0.276;2024-01-10T01:07:20;102547.97;;;0.08;74.44
64739;BME280;51175;51.186;0.276;2024-01-10T01:07:51;102555.78;;;0.08;74.48
64739;BME280;51175;51.186;0.276;2024-01-10T01:08:21;102546.31;;;0.07;74.69
64739;BME280;51175;51.186;0.276;2024-01-10T01:08:51;102548.13;;;0.06;74.47
64739;BME280;51175;51.186;0.276;2024-01-10T01:09:22;102551.50;;;0.07;74.57
64739;BME280;51175;51.186;0.276;2024-01-10T01:09:52;102550.72;;;0.06;74.62
64739;BME280;51175;51.186;0.276;2024-01-10T01:10:25;102551.66;;;0.05;74.51
64739;BME280;51175;51.186;0.276;2024-01-10T01:10:58;102547.28;;;0.06;74.56
64739;BME280;51175;51.186;0.276;2024-01-10T01:11:28;102549.06;;;0.05;74.60
64739;BME280;51175;51.186;0.276;2024-01-10T01:12:01;102548.38;;;0.03;74.59
64739;BME280;51175;51.186;0.276;2024-01-10T01:12:34;102551.00;;;0.03;74.66
64739;BME280;51175;51.186;0.276;2024-01-10T01:13:05;102548.25;;;0.05;74.54
64739;BME280;51175;51.186;0.276;2024-01-10T01:13:35;102553.59;;;0.03;74.68
64739;BME280;51175;51.186;0.276;2024-01-10T01:14:06;102551.94;;;0.02;74.59
64739;BME280;51175;51.186;0.276;2024-01-10T01:14:36;102545.94;;;0.02;74.64
64739;BME280;51175;51.186;0.276;2024-01-10T01:15:07;102551.94;;;0.02;74.64
64739;BME280;51175;51.186;0.276;2024-01-10T01:15:38;102545.94;;;0.02;74.54
64739;BME280;51175;51.186;0.276;2024-01-10T01:16:10;102534.69;;;0.01;74.52
64739;BME280;51175;51.186;0.276;2024-01-10T01:16:40;102545.94;;;0.02;74.60
64739;BME280;51175;51.186;0.276;2024-01-10T01:17:11;102548.53;;;0.02;74.54
64739;BME280;51175;51.186;0.276;2024-01-10T01:17:41;102545.94;;;0.02;74.63
64739;BME280;51175;51.186;0.276;2024-01-10T01:18:12;102541.66;;;0.01;74.48
64739;BME280;51175;51.186;0.276;2024-01-10T01:18:43;102551.13;;;0.02;74.69
64739;BME280;51175;51.186;0.276;2024-01-10T01:19:15;102547.56;;;0.03;74.61
64739;BME280;51175;51.186;0.276;2024-01-10T01:19:45;102545.22;;;-0.01;74.65
64739;BME280;51175;51.186;0.276;2024-01-10T01:20:16;102545.09;;;0.01;74.53
64739;BME280;51175;51.186;0.276;2024-01-10T01:20:46;102550.44;;;-0.01;74.54
64739;BME280;51175;51.186;0.276;2024-01-10T01:21:20;102549.59;;;-0.01;74.58
64739;BME280;51175;51.186;0.276;2024-01-10T01:21:51;102544.41;;;-0.01;74.66
64739;BME280;51175;51.186;0.276;2024-01-10T01:22:23;102546.16;;;-0.02;74.69
64739;BME280;51175;51.186;0.276;2024-01-10T01:22:56;102543.56;;;-0.02;74.72
64739;BME280;51175;51.186;0.276;2024-01-10T01:23:26;102547.13;;;-0.03;74.72
64739;BME280;51175;51.186;0.276;2024-01-10T01:23:57;102547.28;;;-0.04;74.75
64739;BME280;51175;51.186;0.276;2024-01-10T01:24:27;102553.31;;;-0.04;74.75
64739;BME280;51175;51.186;0.276;2024-01-10T01:24:58;102543.84;;;-0.05;74.74
64739;BME280;51175;51.186;0.276;2024-01-10T01:25:30;102546.44;;;-0.05;74.79
64739;BME280;51175;51.186;0.276;2024-01-10T01:26:01;102543.84;;;-0.05;74.86
64739;BME280;51175;51.186;0.276;2024-01-10T01:26:31;102545.66;;;-0.05;74.86
64739;BME280;51175;51.186;0.276;2024-01-10T01:27:02;102540.44;;;-0.05;74.81
64739;BME280;51175;51.186;0.276;2024-01-10T01:27:33;102538.00;;;-0.07;74.96
64739;BME280;51175;51.186;0.276;2024-01-10T01:28:04;102535.41;;;-0.07;74.88
64739;BME280;51175;51.186;0.276;2024-01-10T01:28:34;102540.59;;;-0.07;74.80
64739;BME280;51175;51.186;0.276;2024-01-10T01:29:05;102542.34;;;-0.07;74.83
64739;BME280;51175;51.186;0.276;2024-01-10T01:29:35;102540.72;;;-0.08;74.86
64739;BME280;51175;51.186;0.276;2024-01-10T01:30:06;102543.31;;;-0.08;74.98
64739;BME280;51175;51.186;0.276;2024-01-10T01:30:37;102536.34;;;-0.08;74.99
64739;BME280;51175;51.186;0.276;2024-01-10T01:31:09;102543.31;;;-0.08;74.97
64739;BME280;51175;51.186;0.276;2024-01-10T01:31:39;102544.25;;;-0.09;74.97
64739;BME280;51175;51.186;0.276;2024-01-10T01:32:10;102545.09;;;-0.09;74.97
64739;BME280;51175;51.186;0.276;2024-01-10T01:32:40;102544.97;;;-0.07;75.08
64739;BME280;51175;51.186;0.276;2024-01-10T01:33:10;102546.06;;;-0.10;75.07
64739;BME280;51175;51.186;0.276;2024-01-10T01:33:41;102533.88;;;-0.09;75.06
64739;BME280;51175;51.186;0.276;2024-01-10T01:34:11;102540.03;;;-0.10;75.08
64739;BME280;51175;51.186;0.276;2024-01-10T01:34:49;102536.75;;;-0.13;75.13
64739;BME280;51175;51.186;0.276;2024-01-10T01:35:20;102541.00;;;-0.11;75.13
64739;BME280;51175;51.186;0.276;2024-01-10T01:35:55;102537.44;;;-0.10;75.19
64739;BME280;51175;51.186;0.276;2024-01-10T01:37:40;102539.75;;;-0.17;75.21
64739;BME280;51175;51.186;0.276;2024-01-10T01:38:20;102538.13;;;-0.18;75.15
64739;BME280;51175;51.186;0.276;2024-01-10T01:38:50;102539.88;;;-0.19;75.41
64739;BME280;51175;51.186;0.276;2024-01-10T01:39:21;102540.84;;;-0.20;75.32
64739;BME280;51175;51.186;0.276;2024-01-10T01:39:51;102544.28;;;-0.19;75.44
64739;BME280;51175;51.186;0.276;2024-01-10T01:40:21;102540.84;;;-0.20;75.54
64739;BME280;51175;51.186;0.276;2024-01-10T01:40:54;102543.44;;;-0.20;75.59
64739;BME280;51175;51.186;0.276;2024-01-10T01:41:25;102542.47;;;-0.19;75.49
64739;BME280;51175;51.186;0.276;2024-01-10T01:41:55;102536.50;;;-0.19;75.62
64739;BME280;51175;51.186;0.276;2024-01-10T01:42:26;102538.25;;;-0.20;75.53
64739;BME280;51175;51.186;0.276;2024-01-10T01:43:18;102538.53;;;-0.23;75.61
64739;BME280;51175;51.186;0.276;2024-01-10T01:43:58;102535.09;;;-0.23;75.82
64739;BME280;51175;51.186;0.276;2024-01-10T01:44:28;102541.81;;;-0.21;75.72
64739;BME280;51175;51.186;0.276;2024-01-10T01:45:01;102541.00;;;-0.21;75.58
64739;BME280;51175;51.186;0.276;2024-01-10T01:45:32;102540.16;;;-0.22;75.68
64739;BME280;51175;51.186;0.276;2024-01-10T01:46:02;102541.25;;;-0.24;75.82
64739;BME280;51175;51.186;0.276;2024-01-10T01:46:34;102537.69;;;-0.23;75.77
64739;BME280;51175;51.186;0.276;2024-01-10T01:47:04;102537.69;;;-0.23;75.65
64739;BME280;51175;51.186;0.276;2024-01-10T01:47:35;102537.69;;;-0.23;75.71
64739;BME280;51175;51.186;0.276;2024-01-10T01:48:48;102537.84;;;-0.25;75.72
64739;BME280;51175;51.186;0.276;2024-01-10T01:49:03;102532.78;;;-0.27;75.73
64739;BME280;51175;51.186;0.276;2024-01-10T01:50:33;102536.34;;;-0.28;75.70
64739;BME280;51175;51.186;0.276;2024-01-10T01:51:07;102534.72;;;-0.29;75.71
64739;BME280;51175;51.186;0.276;2024-01-10T01:51:39;102532.91;;;-0.28;75.71
64739;BME280;51175;51.186;0.276;2024-01-10T01:52:10;102525.25;;;-0.30;75.82
64739;BME280;51175;51.186;0.276;2024-01-10T01:52:41;102529.66;;;-0.30;75.85
64739;BME280;51175;51.186;0.276;2024-01-10T01:53:13;102535.66;;;-0.30;75.92
64739;BME280;51175;51.186;0.276;2024-01-10T01:53:48;102528.97;;;-0.32;75.83
64739;BME280;51175;51.186;0.276;2024-01-10T01:54:18;102532.38;;;-0.32;75.84
64739;BME280;51175;51.186;0.276;2024-01-10T01:54:50;102533.19;;;-0.31;75.88
64739;BME280;51175;51.186;0.276;2024-01-10T01:55:20;102528.97;;;-0.32;76.03
64739;BME280;51175;51.186;0.276;2024-01-10T01:55:51;102532.38;;;-0.32;76.05
64739;BME280;51175;51.186;0.276;2024-01-10T01:56:22;102529.78;;;-0.32;75.96
64739;BME280;51175;51.186;0.276;2024-01-10T01:56:58;102526.50;;;-0.34;76.02
64739;BME280;51175;51.186;0.276;2024-01-10T01:57:38;102532.63;;;-0.35;75.99
64739;BME280;51175;51.186;0.276;2024-01-10T01:58:16;102528.13;;;-0.33;76.06
64739;BME280;51175;51.186;0.276;2024-01-10T01:58:50;102527.44;;;-0.35;76.13
64739;BME280;51175;51.186;0.276;2024-01-10T01:59:20;102530.03;;;-0.35;75.93
64739;BME280;51175;51.186;0.276;2024-01-10T01:59:51;102527.44;;;-0.35;76.13
64739;BME280;51175;51.186;0.276;2024-01-10T02:00:21;102534.44;;;-0.35;76.13
64739;BME280;51175;51.186;0.276;2024-01-10T02:00:52;102527.56;;;-0.36;76.19
64739;BME280;51175;51.186;0.276;2024-01-10T02:01:23;102527.56;;;-0.36;76.23
64739;BME280;51175;51.186;0.276;2024-01-10T02:01:54;102526.78;;;-0.37;76.32
64739;BME280;51175;51.186;0.276;2024-01-10T02:02:27;102531.13;;;-0.38;76.40
64739;BME280;51175;51.186;0.276;2024-01-10T02:02:59;102530.31;;;-0.38;76.49
64739;BME280;51175;51.186;0.276;2024-01-10T02:03:33;102526.91;;;-0.39;76.38
64739;BME280;51175;51.186;0.276;2024-01-10T02:04:04;102530.31;;;-0.38;76.36
64739;BME280;51175;51.186;0.276;2024-01-10T02:04:36;102532.09;;;-0.39;76.48
64739;BME280;51175;51.186;0.276;2024-01-10T02:05:06;102526.91;;;-0.39;76.47
64739;BME280;51175;51.186;0.276;2024-01-10T02:05:37;102525.09;;;-0.38;76.46
64739;BME280;51175;51.186;0.276;2024-01-10T02:06:08;102528.66;;;-0.39;76.65
64739;BME280;51175;51.186;0.276;2024-01-10T02:06:38;102527.84;;;-0.40;76.49
64739;BME280;51175;51.186;0.276;2024-01-10T02:07:09;102534.69;;;-0.39;76.50
64739;BME280;51175;51.186;0.276;2024-01-10T02:07:39;102532.22;;;-0.40;76.56
64739;BME280;51175;51.186;0.276;2024-01-10T02:08:10;102527.84;;;-0.40;76.53
64739;BME280;51175;51.186;0.276;2024-01-10T02:08:40;102533.03;;;-0.40;76.55
64739;BME280;51175;51.186;0.276;2024-01-10T02:09:11;102526.22;;;-0.41;76.61
64739;BME280;51175;51.186;0.276;2024-01-10T02:09:41;102524.44;;;-0.40;76.53
64739;BME280;51175;51.186;0.276;2024-01-10T02:10:12;102534.81;;;-0.40;76.55
64739;BME280;51175;51.186;0.276;2024-01-10T02:10:42;102533.03;;;-0.40;76.60
64739;BME280;51175;51.186;0.276;2024-01-10T02:11:13;102527.97;;;-0.41;76.67
64739;BME280;51175;51.186;0.276;2024-01-10T02:11:43;102528.81;;;-0.41;76.51
64739;BME280;51175;51.186;0.276;2024-01-10T02:12:19;102526.34;;;-0.42;76.45
64739;BME280;51175;51.186;0.276;2024-01-10T02:12:50;102528.13;;;-0.43;76.56
64739;BME280;51175;51.186;0.276;2024-01-10T02:13:20;102528.13;;;-0.43;76.66
64739;BME280;51175;51.186;0.276;2024-01-10T02:13:51;102529.06;;;-0.44;76.65
64739;BME280;51175;51.186;0.276;2024-01-10T02:14:24;102530.84;;;-0.44;76.63
64739;BME280;51175;51.186;0.276;2024-01-10T02:14:54;102533.44;;;-0.44;76.83
64739;BME280;51175;51.186;0.276;2024-01-10T02:15:27;102531.81;;;-0.45;76.67
64739;BME280;51175;51.186;0.276;2024-01-10T02:15:58;102529.22;;;-0.45;76.72
64739;BME280;51175;51.186;0.276;2024-01-10T02:16:29;102529.22;;;-0.45;76.77
64739;BME280;51175;51.186;0.276;2024-01-10T02:17:00;102528.38;;;-0.46;76.73
64739;BME280;51175;51.186;0.276;2024-01-10T02:17:33;102530.97;;;-0.46;76.76
64739;BME280;51175;51.186;0.276;2024-01-10T02:18:04;102526.63;;;-0.45;76.70
64739;BME280;51175;51.186;0.276;2024-01-10T02:18:35;102523.88;;;-0.44;76.76
64739;BME280;51175;51.186;0.276;2024-01-10T02:19:26;102529.47;;;-0.48;76.61
64739;BME280;51175;51.186;0.276;2024-01-10T02:20:12;102513.91;;;-0.48;76.66
64739;BME280;51175;51.186;0.276;2024-01-10T02:20:43;102522.38;;;-0.46;76.81
64739;BME280;51175;51.186;0.276;2024-01-10T02:21:26;102530.31;;;-0.48;76.68
64739;BME280;51175;51.186;0.276;2024-01-10T02:21:56;102522.53;;;-0.48;76.69
64739;BME280;51175;51.186;0.276;2024-01-10T02:22:29;102530.44;;;-0.49;76.64
64739;BME280;51175;51.186;0.276;2024-01-10T02:22:59;102522.66;;;-0.49;76.73
64739;BME280;51175;51.186;0.276;2024-01-10T02:23:30;102527.84;;;-0.49;76.76
64739;BME280;51175;51.186;0.276;2024-01-10T02:24:01;102523.59;;;-0.51;76.77
64739;BME280;51175;51.186;0.276;2024-01-10T02:24:31;102521.00;;;-0.51;76.81
64739;BME280;51175;51.186;0.276;2024-01-10T02:25:11;102523.59;;;-0.51;76.70
64739;BME280;51175;51.186;0.276;2024-01-10T02:25:42;102520.19;;;-0.51;76.71
64739;BME280;51175;51.186;0.276;2024-01-10T02:26:14;102524.56;;;-0.52;76.70
64739;BME280;51175;51.186;0.276;2024-01-10T02:26:45;102531.53;;;-0.52;76.70
64739;BME280;51175;51.186;0.276;2024-01-10T02:27:16;102521.13;;;-0.52;76.80
64739;BME280;51175;51.186;0.276;2024-01-10T02:27:46;102528.91;;;-0.52;76.85
64739;BME280;51175;51.186;0.276;2024-01-10T02:28:17;102520.34;;;-0.53;76.83
64739;BME280;51175;51.186;0.276;2024-01-10T02:28:47;102520.34;;;-0.53;76.80
64739;BME280;51175;51.186;0.276;2024-01-10T02:29:17;102522.09;;;-0.53;76.74
64739;BME280;51175;51.186;0.276;2024-01-10T02:29:48;102526.47;;;-0.54;76.96
64739;BME280;51175;51.186;0.276;2024-01-10T02:30:19;102527.28;;;-0.53;76.80
64739;BME280;51175;51.186;0.276;2024-01-10T02:30:51;102528.25;;;-0.54;76.88
64739;BME280;51175;51.186;0.276;2024-01-10T02:31:22;102522.22;;;-0.55;76.86
64739;BME280;51175;51.186;0.276;2024-01-10T02:31:52;102524.97;;;-0.56;76.83
64739;BME280;51175;51.186;0.276;2024-01-10T02:32:23;102524.97;;;-0.56;76.74
64739;BME280;51175;51.186;0.276;2024-01-10T02:32:53;102524.97;;;-0.56;76.84
64739;BME280;51175;51.186;0.276;2024-01-10T02:33:24;102520.75;;;-0.57;76.88
64739;BME280;51175;51.186;0.276;2024-01-10T02:33:54;102523.19;;;-0.56;76.89
64739;BME280;51175;51.186;0.276;2024-01-10T02:34:24;102523.19;;;-0.56;76.95
64739;BME280;51175;51.186;0.276;2024-01-10T02:34:55;102518.94;;;-0.57;76.96
64739;BME280;51175;51.186;0.276;2024-01-10T02:35:25;102523.34;;;-0.57;76.91
64739;BME280;51175;51.186;0.276;2024-01-10T02:35:57;102522.50;;;-0.58;76.95
64739;BME280;51175;51.186;0.276;2024-01-10T02:36:27;102522.50;;;-0.58;77.05
64739;BME280;51175;51.186;0.276;2024-01-10T02:36:57;102518.28;;;-0.59;77.10
64739;BME280;51175;51.186;0.276;2024-01-10T02:37:28;102520.03;;;-0.59;77.01
64739;BME280;51175;51.186;0.276;2024-01-10T02:38:06;102520.03;;;-0.59;77.06
64739;BME280;51175;51.186;0.276;2024-01-10T02:38:36;102519.22;;;-0.60;77.01
64739;BME280;51175;51.186;0.276;2024-01-10T02:39:06;102521.00;;;-0.60;77.08
64739;BME280;51175;51.186;0.276;2024-01-10T02:39:37;102518.41;;;-0.60;77.05
64739;BME280;51175;51.186;0.276;2024-01-10T02:40:12;102521.00;;;-0.60;77.21
64739;BME280;51175;51.186;0.276;2024-01-10T02:40:43;102516.75;;;-0.61;76.96
64739;BME280;51175;51.186;0.276;2024-01-10T02:41:13;102514.28;;;-0.63;77.03
64739;BME280;51175;51.186;0.276;2024-01-10T02:41:44;102517.72;;;-0.63;77.05
64739;BME280;51175;51.186;0.276;2024-01-10T02:42:14;102522.91;;;-0.63;77.06
64739;BME280;51175;51.186;0.276;2024-01-10T02:42:45;102523.72;;;-0.62;77.25
64739;BME280;51175;51.186;0.276;2024-01-10T02:43:15;102514.28;;;-0.63;77.05
64739;BME280;51175;51.186;0.276;2024-01-10T02:43:46;102517.72;;;-0.63;76.91
64739;BME280;51175;51.186;0.276;2024-01-10T02:44:16;102514.28;;;-0.63;77.05
64739;BME280;51175;51.186;0.276;2024-01-10T02:44:50;102517.03;;;-0.65;77.11
64739;BME280;51175;51.186;0.276;2024-01-10T02:45:20;102517.16;;;-0.66;76.98
64739;BME280;51175;51.186;0.276;2024-01-10T02:45:53;102517.28;;;-0.68;76.98
64739;BME280;51175;51.186;0.276;2024-01-10T02:46:24;102512.94;;;-0.67;77.21
64739;BME280;51175;51.186;0.276;2024-01-10T02:46:57;102510.31;;;-0.67;77.13
64739;BME280;51175;51.186;0.276;2024-01-10T02:47:27;102505.13;;;-0.67;77.13
64739;BME280;51175;51.186;0.276;2024-01-10T02:47:59;102509.38;;;-0.66;77.04
64739;BME280;51175;51.186;0.276;2024-01-10T02:50:33;102504.44;;;-0.69;77.08
64739;BME280;51175;51.186;0.276;2024-01-10T02:51:06;102513.19;;;-0.70;77.22